sensor_id;sensor_type;location;lat;lon;timestamp;pressure;altitude;pressure_sealevel;temperature;humidity
11808;BME280;5961;42.640;23.380;2023-08-21T00:01:00;94430.72;;;26.46;51.45
11808;BME280;5961;42.640;23.380;2023-08-21T00:03:27;94446.16;;;26.52;51.76
11808;BME280;5961;42.640;23.380;2023-08-21T00:05:56;94443.06;;;26.50;52.10
11808;BME280;5961;42.640;23.380;2023-08-21T00:08:23;94436.94;;;26.46;51.95
11808;BME280;5961;42.640;23.380;2023-08-21T00:10:50;94433.13;;;26.44;52.18
11808;BME280;5961;42.640;23.380;2023-08-21T00:13:22;94429.75;;;26.36;52.14
11808;BME280;5961;42.640;23.380;2023-08-21T00:15:49;94439.31;;;26.44;51.74
11808;BME280;5961;42.640;23.380;2023-08-21T00:18:17;94430.72;;;26.46;51.87
11808;BME280;5961;42.640;23.380;2023-08-21T00:20:44;94436.94;;;26.46;51.89
11808;BME280;5961;42.640;23.380;2023-08-21T00:23:12;94429.94;;;26.45;52.19
11808;BME280;5961;42.640;23.380;2023-08-21T00:25:39;94438.56;;;26.44;52.26
11808;BME280;5961;42.640;23.380;2023-08-21T00:28:05;94437.78;;;26.43;52.08
11808;BME280;5961;42.640;23.380;2023-08-21T00:30:32;94439.31;;;26.44;52.13
11808;BME280;5961;42.640;23.380;2023-08-21T00:32:59;94432.41;;;26.40;52.22
11808;BME280;5961;42.640;23.380;2023-08-21T00:35:25;94435.84;;;26.44;52.84
11808;BME280;5961;42.640;23.380;2023-08-21T00:37:52;94432.69;;;26.45;52.39
11808;BME280;5961;42.640;23.380;2023-08-21T00:40:20;94433.97;;;26.41;52.41
11808;BME280;5961;42.640;23.380;2023-08-21T00:42:47;94438.56;;;26.44;52.28
11808;BME280;5961;42.640;23.380;2023-08-21T00:45:14;94442.03;;;26.44;52.31
11808;BME280;5961;42.640;23.380;2023-08-21T00:47:41;94446.38;;;26.42;51.86
11808;BME280;5961;42.640;23.380;2023-08-21T00:50:09;94436.41;;;26.35;51.89
11808;BME280;5961;42.640;23.380;2023-08-21T00:52:38;94453.44;;;26.39;52.07
11808;BME280;5961;42.640;23.380;2023-08-21T00:55:06;94450.03;;;26.35;52.24
11808;BME280;5961;42.640;23.380;2023-08-21T00:57:36;94451.84;;;26.42;52.44
11808;BME280;5961;42.640;23.380;2023-08-21T01:00:05;94447.28;;;26.35;52.92
11808;BME280;5961;42.640;23.380;2023-08-21T01:02:32;94448.06;;;26.36;52.95
11808;BME280;5961;42.640;23.380;2023-08-21T01:04:59;94460.19;;;26.35;53.48
11808;BME280;5961;42.640;23.380;2023-08-21T01:07:26;94456.69;;;26.34;52.77
11808;BME280;5961;42.640;23.380;2023-08-21T01:09:58;94454.09;;;26.27;52.82
11808;BME280;5961;42.640;23.380;2023-08-21T01:12:35;94442.94;;;26.22;53.40
11808;BME280;5961;42.640;23.380;2023-08-21T01:15:05;94445.44;;;26.12;53.26
11808;BME280;5961;42.640;23.380;2023-08-21T01:17:34;94447.44;;;26.08;53.25
11808;BME280;5961;42.640;23.380;2023-08-21T01:20:02;94457.38;;;25.99;52.64
11808;BME280;5961;42.640;23.380;2023-08-21T01:22:35;94448.09;;;25.96;53.33
11808;BME280;5961;42.640;23.380;2023-08-21T01:25:04;94450.13;;;25.92;52.90
11808;BME280;5961;42.640;23.380;2023-08-21T01:27:32;94451.72;;;25.90;53.61
11808;BME280;5961;42.640;23.380;2023-08-21T01:30:00;94443.56;;;25.90;53.81
11808;BME280;5961;42.640;23.380;2023-08-21T01:32:35;94445.53;;;25.89;53.05
11808;BME280;5961;42.640;23.380;2023-08-21T01:35:05;94447.47;;;25.89;53.58
11808;BME280;5961;42.640;23.380;2023-08-21T01:37:33;94444.56;;;25.80;53.29
11808;BME280;5961;42.640;23.380;2023-08-21T01:40:00;94443.72;;;25.83;53.34
11808;BME280;5961;42.640;23.380;2023-08-21T01:42:28;94448.03;;;25.80;53.53
11808;BME280;5961;42.640;23.380;2023-08-21T01:44:55;94443.50;;;25.74;53.42
11808;BME280;5961;42.640;23.380;2023-08-21T01:47:22;94449.84;;;25.67;54.42
11808;BME280;5961;42.640;23.380;2023-08-21T01:49:48;94457.38;;;25.59;54.93
11808;BME280;5961;42.640;23.380;2023-08-21T01:52:17;94451.25;;;25.55;54.79
11808;BME280;5961;42.640;23.380;2023-08-21T01:54:44;94445.19;;;25.44;54.77
11808;BME280;5961;42.640;23.380;2023-08-21T01:57:13;94446.16;;;25.34;54.65
11808;BME280;5961;42.640;23.380;2023-08-21T01:59:41;94446.28;;;25.27;55.50
11808;BME280;5961;42.640;23.380;2023-08-21T02:02:08;94442.31;;;25.32;55.38
11808;BME280;5961;42.640;23.380;2023-08-21T02:04:34;94437.28;;;25.30;55.13
11808;BME280;5961;42.640;23.380;2023-08-21T02:07:01;94437.81;;;25.22;54.84
11808;BME280;5961;42.640;23.380;2023-08-21T02:09:28;94407.38;;;25.07;55.23
11808;BME280;5961;42.640;23.380;2023-08-21T02:11:54;94433.03;;;25.29;55.33
11808;BME280;5961;42.640;23.380;2023-08-21T02:14:21;94437.56;;;25.36;55.60
11808;BME280;5961;42.640;23.380;2023-08-21T02:16:49;94437.16;;;25.37;55.46
11808;BME280;5961;42.640;23.380;2023-08-21T02:19:16;94386.13;;;25.02;55.57
11808;BME280;5961;42.640;23.380;2023-08-21T02:21:43;94431.28;;;25.39;56.93
11808;BME280;5961;42.640;23.380;2023-08-21T02:24:09;94431.72;;;25.37;55.87
11808;BME280;5961;42.640;23.380;2023-08-21T02:26:36;94433.72;;;25.33;55.30
11808;BME280;5961;42.640;23.380;2023-08-21T02:29:03;94423.03;;;25.23;55.22
11808;BME280;5961;42.640;23.380;2023-08-21T02:31:30;94437.41;;;25.23;55.49
11808;BME280;5961;42.640;23.380;2023-08-21T02:33:58;94435.53;;;25.20;55.85
11808;BME280;5961;42.640;23.380;2023-08-21T02:36:24;94442.16;;;25.19;56.08
11808;BME280;5961;42.640;23.380;2023-08-21T02:38:51;94433.25;;;25.15;56.61
11808;BME280;5961;42.640;23.380;2023-08-21T02:41:18;94430.31;;;25.06;57.00
11808;BME280;5961;42.640;23.380;2023-08-21T02:43:44;94426.75;;;25.09;57.42
11808;BME280;5961;42.640;23.380;2023-08-21T02:46:11;94430.38;;;25.02;57.87
11808;BME280;5961;42.640;23.380;2023-08-21T02:48:38;94430.19;;;25.13;57.57
11808;BME280;5961;42.640;23.380;2023-08-21T02:51:06;94432.59;;;25.11;57.46
11808;BME280;5961;42.640;23.380;2023-08-21T02:53:33;94435.69;;;25.09;57.87
11808;BME280;5961;42.640;23.380;2023-08-21T02:55:59;94434.16;;;25.08;58.06
11808;BME280;5961;42.640;23.380;2023-08-21T02:58:26;94431.88;;;25.07;57.88
11808;BME280;5961;42.640;23.380;2023-08-21T03:00:53;94380.44;;;24.66;57.30
11808;BME280;5961;42.640;23.380;2023-08-21T03:03:20;94412.19;;;24.73;57.68
11808;BME280;5961;42.640;23.380;2023-08-21T03:05:46;94436.47;;;24.87;57.30
11808;BME280;5961;42.640;23.380;2023-08-21T03:08:14;94440.09;;;24.77;58.35
11808;BME280;5961;42.640;23.380;2023-08-21T03:10:42;94443.63;;;24.74;58.39
11808;BME280;5961;42.640;23.380;2023-08-21T03:13:08;94446.47;;;24.67;59.13
11808;BME280;5961;42.640;23.380;2023-08-21T03:15:35;94434.16;;;24.58;59.17
11808;BME280;5961;42.640;23.380;2023-08-21T03:18:02;94436.59;;;24.53;59.27
11808;BME280;5961;42.640;23.380;2023-08-21T03:20:29;94444.25;;;24.58;59.68
11808;BME280;5961;42.640;23.380;2023-08-21T03:22:56;94443.50;;;24.57;59.48
11808;BME280;5961;42.640;23.380;2023-08-21T03:25:24;94455.47;;;24.60;59.92
11808;BME280;5961;42.640;23.380;2023-08-21T03:27:50;94460.63;;;24.54;60.12
11808;BME280;5961;42.640;23.380;2023-08-21T03:30:17;94451.75;;;24.50;59.91
11808;BME280;5961;42.640;23.380;2023-08-21T03:32:44;94457.91;;;24.54;60.37
11808;BME280;5961;42.640;23.380;2023-08-21T03:37:37;94423.06;;;24.23;60.25
11808;BME280;5961;42.640;23.380;2023-08-21T03:40:04;94446.16;;;24.34;60.51
11808;BME280;5961;42.640;23.380;2023-08-21T03:42:33;94459.94;;;24.20;60.75
11808;BME280;5961;42.640;23.380;2023-08-21T03:44:59;94459.53;;;24.22;60.82
11808;BME280;5961;42.640;23.380;2023-08-21T03:47:26;94449.22;;;24.06;61.71
11808;BME280;5961;42.640;23.380;2023-08-21T03:49:53;94445.38;;;24.03;61.17
11808;BME280;5961;42.640;23.380;2023-08-21T03:52:19;94454.03;;;23.95;61.77
11808;BME280;5961;42.640;23.380;2023-08-21T03:54:46;94460.38;;;23.81;62.85
11808;BME280;5961;42.640;23.380;2023-08-21T03:57:13;94457.06;;;23.67;63.45
11808;BME280;5961;42.640;23.380;2023-08-21T03:59:41;94451.66;;;23.63;63.83
11808;BME280;5961;42.640;23.380;2023-08-21T04:02:07;94446.38;;;23.53;63.79
11808;BME280;5961;42.640;23.380;2023-08-21T04:04:34;94450.16;;;23.62;63.72
11808;BME280;5961;42.640;23.380;2023-08-21T04:07:01;94454.06;;;23.58;63.76
11808;BME280;5961;42.640;23.380;2023-08-21T04:09:27;94448.25;;;23.59;63.57
11808;BME280;5961;42.640;23.380;2023-08-21T04:11:54;94405.53;;;23.29;63.57
11808;BME280;5961;42.640;23.380;2023-08-21T04:14:21;94453.56;;;23.66;62.33
11808;BME280;5961;42.640;23.380;2023-08-21T04:16:49;94458.69;;;23.61;62.85
11808;BME280;5961;42.640;23.380;2023-08-21T04:19:16;94467.09;;;23.70;63.29
11808;BME280;5961;42.640;23.380;2023-08-21T04:21:42;94412.84;;;23.32;63.99
11808;BME280;5961;42.640;23.380;2023-08-21T04:24:09;94460.16;;;23.69;62.95
11808;BME280;5961;42.640;23.380;2023-08-21T04:26:36;94455.47;;;23.69;62.89
11808;BME280;5961;42.640;23.380;2023-08-21T04:29:02;94460.38;;;23.81;63.15
11808;BME280;5961;42.640;23.380;2023-08-21T04:31:29;94472.78;;;23.82;62.92
11808;BME280;5961;42.640;23.380;2023-08-21T04:33:57;94470.78;;;23.90;62.78
11808;BME280;5961;42.640;23.380;2023-08-21T04:36:24;94474.47;;;24.03;62.68
11808;BME280;5961;42.640;23.380;2023-08-21T04:38:50;94470.59;;;24.04;62.48
11808;BME280;5961;42.640;23.380;2023-08-21T04:41:17;94470.59;;;24.04;62.12
11808;BME280;5961;42.640;23.380;2023-08-21T04:43:44;94466.25;;;24.10;61.93
11808;BME280;5961;42.640;23.380;2023-08-21T04:46:10;94470.00;;;24.23;61.98
11808;BME280;5961;42.640;23.380;2023-08-21T04:48:37;94436.47;;;24.03;62.14
11808;BME280;5961;42.640;23.380;2023-08-21T04:51:05;94478.28;;;24.39;62.11
11808;BME280;5961;42.640;23.380;2023-08-21T04:53:32;94470.88;;;24.43;62.33
11808;BME280;5961;42.640;23.380;2023-08-21T04:55:59;94485.06;;;24.54;61.55
11808;BME280;5961;42.640;23.380;2023-08-21T04:58:26;94488.88;;;24.61;61.70
11808;BME280;5961;42.640;23.380;2023-08-21T05:00:52;94488.78;;;24.68;61.71
11808;BME280;5961;42.640;23.380;2023-08-21T05:03:19;94487.53;;;24.72;62.03
11808;BME280;5961;42.640;23.380;2023-08-21T05:05:52;94495.56;;;24.83;61.70
11808;BME280;5961;42.640;23.380;2023-08-21T05:08:20;94487.06;;;24.81;61.77
11808;BME280;5961;42.640;23.380;2023-08-21T05:10:47;94496.66;;;24.89;62.02
11808;BME280;5961;42.640;23.380;2023-08-21T05:13:14;94498.59;;;24.88;61.68
11808;BME280;5961;42.640;23.380;2023-08-21T05:15:43;94502.09;;;24.89;61.60
11808;BME280;5961;42.640;23.380;2023-08-21T05:18:09;94508.25;;;24.93;61.70
11808;BME280;5961;42.640;23.380;2023-08-21T05:20:36;94511.25;;;24.98;60.96
11808;BME280;5961;42.640;23.380;2023-08-21T05:23:03;94506.59;;;24.99;60.68
11808;BME280;5961;42.640;23.380;2023-08-21T05:25:33;94505.78;;;25.02;60.83
11808;BME280;5961;42.640;23.380;2023-08-21T05:27:59;94512.38;;;25.01;60.61
11808;BME280;5961;42.640;23.380;2023-08-21T05:30:26;94506.94;;;25.01;60.88
11808;BME280;5961;42.640;23.380;2023-08-21T05:32:53;94507.66;;;25.05;60.81
11808;BME280;5961;42.640;23.380;2023-08-21T05:35:19;94494.53;;;25.00;60.94
11808;BME280;5961;42.640;23.380;2023-08-21T05:37:46;94504.94;;;25.05;61.19
11808;BME280;5961;42.640;23.380;2023-08-21T05:40:13;94500.38;;;24.98;61.32
11808;BME280;5961;42.640;23.380;2023-08-21T05:42:41;94502.97;;;25.05;61.33
11808;BME280;5961;42.640;23.380;2023-08-21T05:45:08;94505.25;;;25.10;61.58
11808;BME280;5961;42.640;23.380;2023-08-21T05:47:35;94507.47;;;25.16;61.48
11808;BME280;5961;42.640;23.380;2023-08-21T05:50:01;94497.28;;;25.23;61.10
11808;BME280;5961;42.640;23.380;2023-08-21T05:52:28;94492.91;;;25.29;60.98
11808;BME280;5961;42.640;23.380;2023-08-21T05:54:55;94494.28;;;25.37;60.60
11808;BME280;5961;42.640;23.380;2023-08-21T05:57:22;94499.63;;;25.44;60.22
11808;BME280;5961;42.640;23.380;2023-08-21T05:59:50;94490.25;;;25.45;60.33
11808;BME280;5961;42.640;23.380;2023-08-21T06:02:17;94504.97;;;25.51;60.00
11808;BME280;5961;42.640;23.380;2023-08-21T06:04:44;94504.06;;;25.58;59.78
11808;BME280;5961;42.640;23.380;2023-08-21T06:07:10;94504.34;;;25.63;59.36
11808;BME280;5961;42.640;23.380;2023-08-21T06:09:37;94476.22;;;25.50;59.21
11808;BME280;5961;42.640;23.380;2023-08-21T06:12:04;94481.53;;;25.57;59.14
11808;BME280;5961;42.640;23.380;2023-08-21T06:14:31;94502.69;;;25.70;58.32
11808;BME280;5961;42.640;23.380;2023-08-21T06:17:00;94508.00;;;25.77;58.33
11808;BME280;5961;42.640;23.380;2023-08-21T06:19:27;94514.50;;;25.83;57.96
11808;BME280;5961;42.640;23.380;2023-08-21T06:21:54;94511.00;;;25.82;57.76
11808;BME280;5961;42.640;23.380;2023-08-21T06:24:21;94500.97;;;25.79;57.79
11808;BME280;5961;42.640;23.380;2023-08-21T06:26:48;94510.41;;;25.94;57.42
11808;BME280;5961;42.640;23.380;2023-08-21T06:29:15;94514.16;;;26.00;56.79
11808;BME280;5961;42.640;23.380;2023-08-21T06:31:42;94504.50;;;25.96;55.77
11808;BME280;5961;42.640;23.380;2023-08-21T06:34:10;94517.44;;;26.11;55.81
11808;BME280;5961;42.640;23.380;2023-08-21T06:36:37;94521.72;;;26.12;55.07
11808;BME280;5961;42.640;23.380;2023-08-21T06:39:05;94522.34;;;26.20;55.12
11808;BME280;5961;42.640;23.380;2023-08-21T06:41:31;94528.09;;;26.26;54.68
11808;BME280;5961;42.640;23.380;2023-08-21T06:43:58;94517.53;;;26.28;54.49
11808;BME280;5961;42.640;23.380;2023-08-21T06:46:25;94523.00;;;26.28;54.47
11808;BME280;5961;42.640;23.380;2023-08-21T06:48:52;94511.31;;;26.27;54.49
11808;BME280;5961;42.640;23.380;2023-08-21T06:51:20;94518.16;;;26.35;54.81
11808;BME280;5961;42.640;23.380;2023-08-21T06:53:46;94524.66;;;26.41;54.76
11808;BME280;5961;42.640;23.380;2023-08-21T06:56:13;94531.13;;;26.47;53.96
11808;BME280;5961;42.640;23.380;2023-08-21T06:58:40;94530.66;;;26.52;53.95
11808;BME280;5961;42.640;23.380;2023-08-21T07:01:06;94523.16;;;26.56;53.73
11808;BME280;5961;42.640;23.380;2023-08-21T07:03:33;94522.69;;;26.61;54.33
11808;BME280;5961;42.640;23.380;2023-08-21T07:06:00;94526.06;;;26.65;53.97
11808;BME280;5961;42.640;23.380;2023-08-21T07:08:29;94528.31;;;26.70;53.82
11808;BME280;5961;42.640;23.380;2023-08-21T07:10:56;94524.75;;;26.73;53.82
11808;BME280;5961;42.640;23.380;2023-08-21T07:13:22;94528.91;;;26.78;53.51
11808;BME280;5961;42.640;23.380;2023-08-21T07:15:52;94493.03;;;26.63;53.47
11808;BME280;5961;42.640;23.380;2023-08-21T07:18:20;94531.00;;;26.90;53.28
11808;BME280;5961;42.640;23.380;2023-08-21T07:20:46;94523.53;;;26.94;53.71
11808;BME280;5961;42.640;23.380;2023-08-21T07:23:13;94524.97;;;26.99;53.41
11808;BME280;5961;42.640;23.380;2023-08-21T07:25:42;94529.94;;;27.04;53.06
11808;BME280;5961;42.640;23.380;2023-08-21T07:28:09;94522.78;;;27.10;52.99
11808;BME280;5961;42.640;23.380;2023-08-21T07:30:36;94523.81;;;27.16;52.75
11808;BME280;5961;42.640;23.380;2023-08-21T07:33:04;94517.06;;;27.20;52.69
11808;BME280;5961;42.640;23.380;2023-08-21T07:35:31;94516.13;;;27.27;52.63
11808;BME280;5961;42.640;23.380;2023-08-21T07:37:58;94524.47;;;27.36;52.02
11808;BME280;5961;42.640;23.380;2023-08-21T07:40:25;94518.50;;;27.41;51.60
11808;BME280;5961;42.640;23.380;2023-08-21T07:42:53;94521.09;;;27.48;50.73
11808;BME280;5961;42.640;23.380;2023-08-21T07:45:20;94510.84;;;27.52;50.84
11808;BME280;5961;42.640;23.380;2023-08-21T07:47:47;94522.00;;;27.58;50.18
11808;BME280;5961;42.640;23.380;2023-08-21T07:50:14;94500.94;;;27.58;50.11
11808;BME280;5961;42.640;23.380;2023-08-21T07:52:42;94498.53;;;27.60;49.72
11808;BME280;5961;42.640;23.380;2023-08-21T07:55:08;94513.03;;;27.73;49.26
11808;BME280;5961;42.640;23.380;2023-08-21T07:57:35;94509.44;;;27.76;49.05
11808;BME280;5961;42.640;23.380;2023-08-21T08:00:04;94515.06;;;27.86;48.75
11808;BME280;5961;42.640;23.380;2023-08-21T08:02:33;94507.50;;;27.90;48.66
11808;BME280;5961;42.640;23.380;2023-08-21T08:05:00;94507.66;;;27.99;48.66
11808;BME280;5961;42.640;23.380;2023-08-21T08:07:27;94512.97;;;28.06;48.47
11808;BME280;5961;42.640;23.380;2023-08-21T08:09:54;94496.91;;;28.08;47.56
11808;BME280;5961;42.640;23.380;2023-08-21T08:12:20;94506.97;;;28.11;46.81
11808;BME280;5961;42.640;23.380;2023-08-21T08:14:47;94497.47;;;28.15;46.38
11808;BME280;5961;42.640;23.380;2023-08-21T08:17:15;94493.56;;;28.16;46.08
11808;BME280;5961;42.640;23.380;2023-08-21T08:19:42;94497.16;;;28.26;46.21
11808;BME280;5961;42.640;23.380;2023-08-21T08:22:08;94503.97;;;28.34;45.41
11808;BME280;5961;42.640;23.380;2023-08-21T08:24:35;94496.88;;;28.37;45.45
11808;BME280;5961;42.640;23.380;2023-08-21T08:27:02;94485.47;;;28.38;44.66
11808;BME280;5961;42.640;23.380;2023-08-21T08:29:29;94496.03;;;28.52;44.47
11808;BME280;5961;42.640;23.380;2023-08-21T08:31:56;94495.78;;;28.59;44.52
11808;BME280;5961;42.640;23.380;2023-08-21T08:34:24;94496.88;;;28.62;44.52
11808;BME280;5961;42.640;23.380;2023-08-21T08:36:51;94489.81;;;28.64;44.47
11808;BME280;5961;42.640;23.380;2023-08-21T08:39:17;94491.25;;;28.69;45.26
11808;BME280;5961;42.640;23.380;2023-08-21T08:41:49;94487.94;;;28.74;43.63
11808;BME280;5961;42.640;23.380;2023-08-21T08:44:17;94475.59;;;28.69;43.32
11808;BME280;5961;42.640;23.380;2023-08-21T08:46:44;94480.41;;;28.78;43.88
11808;BME280;5961;42.640;23.380;2023-08-21T08:49:11;94483.72;;;28.85;44.74
11808;BME280;5961;42.640;23.380;2023-08-21T08:51:41;94478.88;;;28.90;44.51
11808;BME280;5961;42.640;23.380;2023-08-21T08:54:10;94447.28;;;28.76;44.20
11808;BME280;5961;42.640;23.380;2023-08-21T08:56:38;94465.28;;;28.99;43.50
11808;BME280;5961;42.640;23.380;2023-08-21T08:59:07;94469.78;;;29.05;42.27
11808;BME280;5961;42.640;23.380;2023-08-21T09:01:34;94470.97;;;29.17;42.28
11808;BME280;5961;42.640;23.380;2023-08-21T09:04:02;94466.91;;;29.21;41.62
11808;BME280;5961;42.640;23.380;2023-08-21T09:06:29;94468.56;;;29.31;40.75
11808;BME280;5961;42.640;23.380;2023-08-21T09:09:00;94468.13;;;29.33;40.96
11808;BME280;5961;42.640;23.380;2023-08-21T09:11:26;94473.81;;;29.38;40.92
11808;BME280;5961;42.640;23.380;2023-08-21T09:13:54;94476.63;;;29.48;40.22
11808;BME280;5961;42.640;23.380;2023-08-21T09:16:23;94476.19;;;29.49;40.50
11808;BME280;5961;42.640;23.380;2023-08-21T09:18:50;94472.56;;;29.52;40.48
11808;BME280;5961;42.640;23.380;2023-08-21T09:21:19;94475.81;;;29.60;40.42
11808;BME280;5961;42.640;23.380;2023-08-21T09:23:46;94460.94;;;29.61;40.14
11808;BME280;5961;42.640;23.380;2023-08-21T09:26:20;94460.81;;;29.64;39.89
11808;BME280;5961;42.640;23.380;2023-08-21T09:28:47;94468.75;;;29.71;39.82
11808;BME280;5961;42.640;23.380;2023-08-21T09:31:14;94470.97;;;29.76;39.31
11808;BME280;5961;42.640;23.380;2023-08-21T09:33:42;94462.50;;;29.83;38.73
11808;BME280;5961;42.640;23.380;2023-08-21T09:36:09;94460.72;;;29.89;39.01
11808;BME280;5961;42.640;23.380;2023-08-21T09:38:38;94460.16;;;29.95;38.55
11808;BME280;5961;42.640;23.380;2023-08-21T09:41:06;94459.28;;;29.98;38.59
11808;BME280;5961;42.640;23.380;2023-08-21T09:43:41;94450.41;;;29.93;38.51
11808;BME280;5961;42.640;23.380;2023-08-21T09:46:08;94462.50;;;30.05;38.11
11808;BME280;5961;42.640;23.380;2023-08-21T09:48:35;94449.09;;;30.07;37.42
11808;BME280;5961;42.640;23.380;2023-08-21T09:51:03;94431.66;;;29.92;36.91
11808;BME280;5961;42.640;23.380;2023-08-21T09:53:30;94448.09;;;30.14;37.57
11808;BME280;5961;42.640;23.380;2023-08-21T09:56:00;94450.59;;;30.21;37.36
11808;BME280;5961;42.640;23.380;2023-08-21T09:58:28;94441.47;;;30.24;37.52
11808;BME280;5961;42.640;23.380;2023-08-21T10:00:57;94444.50;;;30.26;37.83
11808;BME280;5961;42.640;23.380;2023-08-21T10:03:25;94434.94;;;30.30;38.37
11808;BME280;5961;42.640;23.380;2023-08-21T10:05:54;94439.28;;;30.40;37.77
11808;BME280;5961;42.640;23.380;2023-08-21T10:08:24;94436.59;;;30.50;36.24
11808;BME280;5961;42.640;23.380;2023-08-21T10:10:51;94437.34;;;30.50;35.24
11808;BME280;5961;42.640;23.380;2023-08-21T10:13:18;94413.13;;;30.49;35.46
11808;BME280;5961;42.640;23.380;2023-08-21T10:15:45;94431.78;;;30.63;35.77
11808;BME280;5961;42.640;23.380;2023-08-21T10:18:21;94432.72;;;30.69;35.54
11808;BME280;5961;42.640;23.380;2023-08-21T10:20:50;94428.63;;;30.73;35.16
11808;BME280;5961;42.640;23.380;2023-08-21T10:23:27;94430.00;;;30.78;34.72
11808;BME280;5961;42.640;23.380;2023-08-21T10:25:55;94416.16;;;30.81;34.55
11808;BME280;5961;42.640;23.380;2023-08-21T10:28:22;94419.81;;;30.87;34.76
11808;BME280;5961;42.640;23.380;2023-08-21T10:30:49;94410.06;;;30.86;34.50
11808;BME280;5961;42.640;23.380;2023-08-21T10:33:16;94406.25;;;30.93;34.67
11808;BME280;5961;42.640;23.380;2023-08-21T10:35:46;94400.38;;;30.94;35.39
11808;BME280;5961;42.640;23.380;2023-08-21T10:38:13;94385.34;;;30.86;35.51
11808;BME280;5961;42.640;23.380;2023-08-21T10:41:04;94404.34;;;31.03;34.99
11808;BME280;5961;42.640;23.380;2023-08-21T10:43:38;94405.25;;;31.09;34.30
11808;BME280;5961;42.640;23.380;2023-08-21T10:46:05;94403.13;;;31.13;34.26
11808;BME280;5961;42.640;23.380;2023-08-21T10:48:32;94395.50;;;31.17;35.10
11808;BME280;5961;42.640;23.380;2023-08-21T10:51:02;94392.47;;;31.24;34.11
11808;BME280;5961;42.640;23.380;2023-08-21T10:53:30;94386.38;;;31.29;33.91
11808;BME280;5961;42.640;23.380;2023-08-21T10:55:57;94391.56;;;31.36;34.38
11808;BME280;5961;42.640;23.380;2023-08-21T10:58:24;94388.81;;;31.45;34.11
11808;BME280;5961;42.640;23.380;2023-08-21T11:00:56;94385.97;;;31.58;33.71
11808;BME280;5961;42.640;23.380;2023-08-21T11:03:23;94366.56;;;31.52;33.54
11808;BME280;5961;42.640;23.380;2023-08-21T11:06:05;94384.56;;;31.71;33.29
11808;BME280;5961;42.640;23.380;2023-08-21T11:08:32;94380.88;;;31.83;32.81
11808;BME280;5961;42.640;23.380;2023-08-21T11:10:59;94386.06;;;31.90;32.90
11808;BME280;5961;42.640;23.380;2023-08-21T11:13:26;94353.88;;;31.82;32.32
11808;BME280;5961;42.640;23.380;2023-08-21T11:16:00;94384.09;;;32.09;31.84
11808;BME280;5961;42.640;23.380;2023-08-21T11:18:31;94376.56;;;32.19;31.91
11808;BME280;5961;42.640;23.380;2023-08-21T11:21:07;94372.28;;;32.18;31.97
11808;BME280;5961;42.640;23.380;2023-08-21T11:23:36;94359.19;;;32.03;31.60
11808;BME280;5961;42.640;23.380;2023-08-21T11:26:04;94371.84;;;32.01;32.71
11808;BME280;5961;42.640;23.380;2023-08-21T11:28:32;94369.09;;;32.01;31.81
11808;BME280;5961;42.640;23.380;2023-08-21T11:30:59;94368.94;;;32.14;31.17
11808;BME280;5961;42.640;23.380;2023-08-21T11:33:27;94371.84;;;32.10;31.10
11808;BME280;5961;42.640;23.380;2023-08-21T11:35:54;94360.94;;;32.25;30.37
11808;BME280;5961;42.640;23.380;2023-08-21T11:38:26;94358.47;;;32.36;29.92
11808;BME280;5961;42.640;23.380;2023-08-21T11:40:54;94363.59;;;32.52;29.21
11808;BME280;5961;42.640;23.380;2023-08-21T11:43:22;94322.38;;;32.43;29.86
11808;BME280;5961;42.640;23.380;2023-08-21T11:45:49;94356.00;;;32.80;29.18
11808;BME280;5961;42.640;23.380;2023-08-21T11:48:19;94347.50;;;32.92;28.53
11808;BME280;5961;42.640;23.380;2023-08-21T11:50:48;94350.50;;;33.03;28.65
11808;BME280;5961;42.640;23.380;2023-08-21T11:53:14;94350.41;;;33.22;28.69
11808;BME280;5961;42.640;23.380;2023-08-21T11:55:43;94349.88;;;33.32;27.85
11808;BME280;5961;42.640;23.380;2023-08-21T11:58:10;94357.41;;;33.46;27.33
11808;BME280;5961;42.640;23.380;2023-08-21T12:00:39;94355.34;;;33.56;28.25
11808;BME280;5961;42.640;23.380;2023-08-21T12:03:06;94353.06;;;33.54;27.33
11808;BME280;5961;42.640;23.380;2023-08-21T12:05:42;94347.84;;;33.56;27.29
11808;BME280;5961;42.640;23.380;2023-08-21T12:08:09;94350.91;;;33.73;26.49
11808;BME280;5961;42.640;23.380;2023-08-21T12:10:36;94339.03;;;33.82;26.70
11808;BME280;5961;42.640;23.380;2023-08-21T12:13:04;94349.78;;;33.94;26.55
11808;BME280;5961;42.640;23.380;2023-08-21T12:15:31;94342.94;;;34.04;26.49
11808;BME280;5961;42.640;23.380;2023-08-21T12:17:58;94333.56;;;34.11;26.13
11808;BME280;5961;42.640;23.380;2023-08-21T12:20:25;94341.56;;;34.24;25.63
11808;BME280;5961;42.640;23.380;2023-08-21T12:22:52;94331.06;;;34.28;25.65
11808;BME280;5961;42.640;23.380;2023-08-21T12:25:18;94318.31;;;34.30;26.04
11808;BME280;5961;42.640;23.380;2023-08-21T12:27:45;94331.03;;;34.42;26.35
11808;BME280;5961;42.640;23.380;2023-08-21T12:30:13;94332.94;;;34.51;25.56
11808;BME280;5961;42.640;23.380;2023-08-21T12:32:40;94330.59;;;34.29;25.83
11808;BME280;5961;42.640;23.380;2023-08-21T12:35:08;94334.88;;;34.15;25.65
11808;BME280;5961;42.640;23.380;2023-08-21T12:37:37;94332.97;;;34.07;25.79
11808;BME280;5961;42.640;23.380;2023-08-21T12:40:05;94327.38;;;34.16;25.85
11808;BME280;5961;42.640;23.380;2023-08-21T12:42:33;94322.13;;;34.18;25.96
11808;BME280;5961;42.640;23.380;2023-08-21T12:45:00;94328.03;;;34.26;26.05
11808;BME280;5961;42.640;23.380;2023-08-21T12:47:28;94327.66;;;34.33;25.91
11808;BME280;5961;42.640;23.380;2023-08-21T12:49:55;94329.34;;;34.45;26.05
11808;BME280;5961;42.640;23.380;2023-08-21T12:52:22;94319.41;;;34.53;25.31
11808;BME280;5961;42.640;23.380;2023-08-21T12:54:49;94328.19;;;34.66;25.09
11808;BME280;5961;42.640;23.380;2023-08-21T12:57:15;94319.28;;;34.77;24.82
11808;BME280;5961;42.640;23.380;2023-08-21T12:59:43;94316.88;;;34.84;24.47
11808;BME280;5961;42.640;23.380;2023-08-21T13:02:10;94315.69;;;34.91;24.41
11808;BME280;5961;42.640;23.380;2023-08-21T13:04:38;94310.53;;;34.98;24.36